createdAt,value
2018-09-13T00:00:02.805Z,21.75
2018-09-13T00:01:02.738Z,21.75
2018-09-13T00:02:02.671Z,21.75
2018-09-13T00:03:02.339Z,21.75
2018-09-13T00:04:02.787Z,21.75
2018-09-13T00:05:02.323Z,21.75
2018-09-13T00:06:02.510Z,21.75
2018-09-13T00:07:02.714Z,21.75
2018-09-13T00:08:02.667Z,21.75
2018-09-13T00:09:02.702Z,21.76
2018-09-13T00:10:02.805Z,21.75
2018-09-13T00:11:02.666Z,21.75
2018-09-13T00:12:02.529Z,21.75
2018-09-13T00:13:02.437Z,21.75
2018-09-13T00:14:02.879Z,21.74
2018-09-13T00:15:02.431Z,21.74
2018-09-13T00:16:02.703Z,21.75
2018-09-13T00:17:02.413Z,21.75
2018-09-13T00:18:02.673Z,21.74
2018-09-13T00:19:03.034Z,21.75
2018-09-13T00:20:02.470Z,21.75
2018-09-13T00:21:02.736Z,21.74
2018-09-13T00:22:02.862Z,21.74
2018-09-13T00:23:02.831Z,21.75
2018-09-13T00:24:02.699Z,21.74
2018-09-13T00:25:02.420Z,21.74
2018-09-13T00:26:02.529Z,21.74
2018-09-13T00:27:02.400Z,21.74
2018-09-13T00:28:02.924Z,21.74
2018-09-13T00:29:02.544Z,21.74
2018-09-13T00:30:02.739Z,21.73
2018-09-13T00:31:02.572Z,21.74
2018-09-13T00:32:02.540Z,21.74
2018-09-13T00:33:02.504Z,21.73
2018-09-13T00:34:02.747Z,21.74
2018-09-13T00:35:02.430Z,21.73
2018-09-13T00:36:02.497Z,21.73
2018-09-13T00:37:02.759Z,21.74
2018-09-13T00:38:02.694Z,21.74
2018-09-13T00:39:02.691Z,21.73
2018-09-13T00:40:02.413Z,21.75
2018-09-13T00:41:02.420Z,21.73
2018-09-13T00:42:02.539Z,21.73
2018-09-13T00:43:02.765Z,21.73
2018-09-13T00:44:02.578Z,21.73
2018-09-13T00:45:02.972Z,21.73
2018-09-13T00:46:02.724Z,21.72
2018-09-13T00:47:02.308Z,21.73
2018-09-13T00:48:02.494Z,21.73
2018-09-13T00:49:02.698Z,21.73
2018-09-13T00:50:02.458Z,21.74
2018-09-13T00:51:02.726Z,21.73
2018-09-13T00:52:02.590Z,21.73
2018-09-13T00:53:02.648Z,21.73
2018-09-13T00:54:02.465Z,21.73
2018-09-13T00:55:02.461Z,21.73
2018-09-13T00:56:02.599Z,21.73
2018-09-13T00:57:02.527Z,21.72
2018-09-13T00:58:02.540Z,21.73
2018-09-13T00:59:02.535Z,21.73
2018-09-13T01:00:02.694Z,21.73
2018-09-13T01:01:02.354Z,21.73
2018-09-13T01:02:02.445Z,21.73
2018-09-13T01:03:02.359Z,21.73
2018-09-13T01:04:02.365Z,21.73
2018-09-13T01:05:02.516Z,21.73
2018-09-13T01:06:02.525Z,21.72
2018-09-13T01:07:02.440Z,21.72
2018-09-13T01:08:02.489Z,21.73
2018-09-13T01:09:02.704Z,21.72
2018-09-13T01:10:02.399Z,21.72
2018-09-13T01:11:02.415Z,21.73
2018-09-13T01:12:02.548Z,21.72
2018-09-13T01:13:02.602Z,21.72
2018-09-13T01:14:02.312Z,21.72
2018-09-13T01:15:02.537Z,21.72
2018-09-13T01:16:02.556Z,21.72
2018-09-13T01:17:03.303Z,21.72
2018-09-13T01:18:02.481Z,21.72
2018-09-13T01:19:02.408Z,21.71
2018-09-13T01:20:02.698Z,21.72
2018-09-13T01:21:02.489Z,21.71
2018-09-13T01:22:02.449Z,21.72
2018-09-13T01:23:02.673Z,21.72
2018-09-13T01:24:02.639Z,21.72
2018-09-13T01:25:02.386Z,21.71
2018-09-13T01:26:02.806Z,21.71
2018-09-13T01:27:02.390Z,21.71
2018-09-13T01:28:02.462Z,21.71
2018-09-13T01:29:02.610Z,21.71
2018-09-13T01:30:02.684Z,21.71
2018-09-13T01:31:02.431Z,21.71
2018-09-13T01:32:02.479Z,21.71
2018-09-13T01:33:02.599Z,21.71
2018-09-13T01:34:02.507Z,21.71
2018-09-13T01:35:02.672Z,21.71
2018-09-13T01:36:02.374Z,21.71
2018-09-13T01:37:02.452Z,21.71
2018-09-13T01:38:02.688Z,21.71
2018-09-13T01:39:02.934Z,21.71
2018-09-13T01:40:02.781Z,21.71
2018-09-13T01:41:02.790Z,21.71
2018-09-13T01:42:02.711Z,21.71
2018-09-13T01:43:02.586Z,21.71
2018-09-13T01:44:02.445Z,21.71
2018-09-13T01:45:02.760Z,21.71
2018-09-13T01:46:02.641Z,21.71
2018-09-13T01:47:02.669Z,21.71
2018-09-13T01:48:02.789Z,21.71
2018-09-13T01:49:02.271Z,21.71
2018-09-13T01:50:02.735Z,21.71
2018-09-13T01:51:02.487Z,21.71
2018-09-13T01:52:02.421Z,21.71
2018-09-13T01:53:02.467Z,21.71
2018-09-13T01:54:02.367Z,21.71
2018-09-13T01:55:02.710Z,21.71
2018-09-13T01:56:02.444Z,21.71
2018-09-13T01:57:02.728Z,21.71
2018-09-13T01:58:02.745Z,21.71
2018-09-13T01:59:02.672Z,21.71
2018-09-13T02:00:02.378Z,21.71
2018-09-13T02:01:02.829Z,21.71
2018-09-13T02:02:02.793Z,21.71
2018-09-13T02:03:02.856Z,21.71
2018-09-13T02:04:02.644Z,21.71
2018-09-13T02:05:02.556Z,21.71
2018-09-13T02:06:02.435Z,21.7
2018-09-13T02:07:02.743Z,21.7
2018-09-13T02:08:02.310Z,21.71
2018-09-13T02:09:02.709Z,21.7
2018-09-13T02:10:02.700Z,21.7
2018-09-13T02:11:02.491Z,21.71
2018-09-13T02:12:02.431Z,21.71
2018-09-13T02:13:02.731Z,21.71
2018-09-13T02:14:02.396Z,21.71
2018-09-13T02:15:02.683Z,21.7
2018-09-13T02:16:02.749Z,21.7
2018-09-13T02:17:02.632Z,21.7
2018-09-13T02:18:02.733Z,21.7
2018-09-13T02:19:02.427Z,21.7
2018-09-13T02:20:02.431Z,21.7
2018-09-13T02:21:02.430Z,21.7
2018-09-13T02:22:02.383Z,21.7
2018-09-13T02:23:02.571Z,21.7
2018-09-13T02:24:02.665Z,21.7
2018-09-13T02:25:02.545Z,21.7
2018-09-13T02:26:02.801Z,21.71
2018-09-13T02:27:02.550Z,21.7
2018-09-13T02:28:02.336Z,21.7
2018-09-13T02:29:02.525Z,21.7
2018-09-13T02:30:02.396Z,21.7
2018-09-13T02:31:02.492Z,21.7
2018-09-13T02:32:02.590Z,21.7
2018-09-13T02:33:02.404Z,21.7
2018-09-13T02:34:02.439Z,21.7
2018-09-13T02:35:02.788Z,21.7
2018-09-13T02:36:02.670Z,21.7
2018-09-13T02:37:02.708Z,21.7
2018-09-13T02:38:02.602Z,21.7
2018-09-13T02:39:02.591Z,21.69
2018-09-13T02:40:02.445Z,21.7
2018-09-13T02:41:02.546Z,21.7
2018-09-13T02:42:02.572Z,21.7
2018-09-13T02:43:02.419Z,21.7
2018-09-13T02:44:02.612Z,21.7
2018-09-13T02:45:02.670Z,21.7
2018-09-13T02:46:02.489Z,21.7
2018-09-13T02:47:02.518Z,21.69
2018-09-13T02:48:02.950Z,21.7
2018-09-13T02:49:02.573Z,21.7
2018-09-13T02:50:02.743Z,21.7
2018-09-13T02:51:02.580Z,21.69
2018-09-13T02:52:02.749Z,21.69
2018-09-13T02:53:02.527Z,21.7
2018-09-13T02:54:02.409Z,21.68
2018-09-13T02:55:02.375Z,21.7
2018-09-13T02:56:02.497Z,21.69
2018-09-13T02:57:02.725Z,21.68
2018-09-13T02:58:02.657Z,21.69
2018-09-13T02:59:02.683Z,21.69
2018-09-13T03:00:02.620Z,21.69
2018-09-13T03:01:02.702Z,21.69
2018-09-13T03:02:02.759Z,21.69
2018-09-13T03:03:02.409Z,21.68
2018-09-13T03:04:02.498Z,21.69
2018-09-13T03:05:02.787Z,21.69
2018-09-13T03:06:02.715Z,21.69
2018-09-13T03:07:02.426Z,21.69
2018-09-13T03:08:02.451Z,21.69
2018-09-13T03:09:02.872Z,21.69
2018-09-13T03:10:02.647Z,21.69
2018-09-13T03:11:02.629Z,21.69
2018-09-13T03:12:02.647Z,21.69
2018-09-13T03:13:02.613Z,21.69
2018-09-13T03:14:02.379Z,21.7
2018-09-13T03:15:02.469Z,21.68
2018-09-13T03:16:02.676Z,21.68
2018-09-13T03:17:02.629Z,21.69
2018-09-13T03:18:02.717Z,21.69
2018-09-13T03:19:02.711Z,21.69
2018-09-13T03:20:02.560Z,21.69
2018-09-13T03:21:02.660Z,21.69
2018-09-13T03:22:02.594Z,21.69
2018-09-13T03:23:02.554Z,21.69
2018-09-13T03:24:02.705Z,21.69
2018-09-13T03:25:02.709Z,21.68
2018-09-13T03:26:02.438Z,21.68
2018-09-13T03:27:02.684Z,21.68
2018-09-13T03:28:02.550Z,21.69
2018-09-13T03:29:02.656Z,21.69
2018-09-13T03:30:02.482Z,21.69
2018-09-13T03:31:02.859Z,21.68
2018-09-13T03:32:02.506Z,21.68
2018-09-13T03:33:02.395Z,21.68
2018-09-13T03:34:02.533Z,21.68
2018-09-13T03:35:02.654Z,21.68
2018-09-13T03:36:02.899Z,21.69
2018-09-13T03:37:02.754Z,21.68
2018-09-13T03:38:02.372Z,21.68
2018-09-13T03:39:02.566Z,21.68
2018-09-13T03:40:02.947Z,21.68
2018-09-13T03:41:02.711Z,21.68
2018-09-13T03:42:02.586Z,21.68
2018-09-13T03:43:02.439Z,21.69
2018-09-13T03:44:02.357Z,21.68
2018-09-13T03:45:02.461Z,21.68
2018-09-13T03:46:02.452Z,21.68
2018-09-13T03:47:02.375Z,21.69
2018-09-13T03:48:02.406Z,21.68
2018-09-13T03:49:02.321Z,21.68
2018-09-13T03:50:02.385Z,21.68
2018-09-13T03:51:02.480Z,21.68
2018-09-13T03:52:02.317Z,21.68
2018-09-13T03:53:02.322Z,21.68
2018-09-13T03:54:02.314Z,21.68
2018-09-13T03:55:02.315Z,21.68
2018-09-13T03:56:02.452Z,21.68
2018-09-13T03:57:02.328Z,21.68
2018-09-13T03:58:02.635Z,21.68
2018-09-13T03:59:02.352Z,21.68
2018-09-13T04:00:02.397Z,21.68
2018-09-13T04:01:02.534Z,21.68
2018-09-13T04:02:02.632Z,21.68
2018-09-13T04:03:02.565Z,21.68
2018-09-13T04:04:02.945Z,21.67
2018-09-13T04:05:02.553Z,21.68
2018-09-13T04:06:02.545Z,21.68
2018-09-13T04:07:02.622Z,21.68
2018-09-13T04:08:02.758Z,21.68
2018-09-13T04:09:02.864Z,21.68
2018-09-13T04:10:02.697Z,21.68
2018-09-13T04:11:02.448Z,21.68
2018-09-13T04:12:02.452Z,21.68
2018-09-13T04:13:02.528Z,21.67
2018-09-13T04:14:02.774Z,21.67
2018-09-13T04:15:02.566Z,21.67
2018-09-13T04:16:02.417Z,21.68
2018-09-13T04:17:02.285Z,21.68
2018-09-13T04:18:02.433Z,21.67
2018-09-13T04:19:02.800Z,21.67
2018-09-13T04:20:02.501Z,21.67
2018-09-13T04:21:02.565Z,21.67
2018-09-13T04:22:02.693Z,21.68
2018-09-13T04:23:02.667Z,21.68
2018-09-13T04:24:02.436Z,21.67
2018-09-13T04:25:02.707Z,21.67
2018-09-13T04:26:02.450Z,21.67
2018-09-13T04:27:02.439Z,21.67
2018-09-13T04:28:02.857Z,21.68
2018-09-13T04:29:02.484Z,21.68
2018-09-13T04:30:02.494Z,21.68
2018-09-13T04:31:02.644Z,21.67
2018-09-13T04:32:02.640Z,21.68
2018-09-13T04:33:02.744Z,21.67
2018-09-13T04:34:02.765Z,21.67
2018-09-13T04:35:02.597Z,21.68
2018-09-13T04:36:02.549Z,21.68
2018-09-13T04:37:02.670Z,21.68
2018-09-13T04:38:02.269Z,21.67
2018-09-13T04:39:02.418Z,21.67
2018-09-13T04:40:02.742Z,21.67
2018-09-13T04:41:02.691Z,21.67
2018-09-13T04:42:02.671Z,21.67
2018-09-13T04:43:02.613Z,21.67
2018-09-13T04:44:02.335Z,21.67
2018-09-13T04:45:02.937Z,21.67
2018-09-13T04:46:02.481Z,21.67
2018-09-13T04:47:02.597Z,21.67
2018-09-13T04:48:02.258Z,21.67
2018-09-13T04:49:02.422Z,21.67
2018-09-13T04:50:02.461Z,21.67
2018-09-13T04:51:02.567Z,21.67
2018-09-13T04:52:02.821Z,21.66
2018-09-13T04:53:02.613Z,21.67
2018-09-13T04:54:02.994Z,21.67
2018-09-13T04:55:02.641Z,21.67
2018-09-13T04:56:02.381Z,21.67
2018-09-13T04:57:02.714Z,21.67
2018-09-13T04:58:02.494Z,21.67
2018-09-13T04:59:02.597Z,21.67
2018-09-13T05:00:02.648Z,21.67
2018-09-13T05:01:02.431Z,21.67
2018-09-13T05:02:02.323Z,21.67
2018-09-13T05:03:02.566Z,21.67
2018-09-13T05:04:02.620Z,21.67
2018-09-13T05:05:02.600Z,21.67
2018-09-13T05:06:02.663Z,21.67
2018-09-13T05:07:02.326Z,21.67
2018-09-13T05:08:02.642Z,21.66
2018-09-13T05:09:02.440Z,21.68
2018-09-13T05:10:03.103Z,21.68
2018-09-13T05:11:02.345Z,21.67
2018-09-13T05:12:02.523Z,21.67
2018-09-13T05:13:02.734Z,21.67
2018-09-13T05:14:02.645Z,21.67
2018-09-13T05:15:02.760Z,21.67
2018-09-13T05:16:02.717Z,21.68
2018-09-13T05:17:02.484Z,21.67
2018-09-13T05:18:02.689Z,21.67
2018-09-13T05:19:02.551Z,21.67
2018-09-13T05:20:02.668Z,21.67
2018-09-13T05:21:02.364Z,21.67
2018-09-13T05:22:02.592Z,21.67
2018-09-13T05:23:02.314Z,21.67
2018-09-13T05:24:02.484Z,21.67
2018-09-13T05:25:02.639Z,21.67
2018-09-13T05:26:02.666Z,21.67
2018-09-13T05:27:02.942Z,21.66
2018-09-13T05:28:02.653Z,21.67
2018-09-13T05:29:02.664Z,21.66
2018-09-13T05:30:02.416Z,21.68
2018-09-13T05:31:02.684Z,21.67
2018-09-13T05:32:02.629Z,21.66
2018-09-13T05:33:02.424Z,21.66
2018-09-13T05:34:02.848Z,21.67
2018-09-13T05:35:02.733Z,21.67
2018-09-13T05:36:02.643Z,21.66
2018-09-13T05:37:02.782Z,21.67
2018-09-13T05:38:02.308Z,21.67
2018-09-13T05:39:02.994Z,21.67
2018-09-13T05:40:02.718Z,21.67
2018-09-13T05:41:02.374Z,21.67
2018-09-13T05:42:02.581Z,21.66
2018-09-13T05:43:02.653Z,21.67
2018-09-13T05:44:02.693Z,21.67
2018-09-13T05:45:02.489Z,21.67
2018-09-13T05:46:02.627Z,21.67
2018-09-13T05:47:02.720Z,21.67
2018-09-13T05:48:02.490Z,21.66
2018-09-13T05:49:02.656Z,21.67
2018-09-13T05:50:02.576Z,21.67
2018-09-13T05:51:02.534Z,21.66
2018-09-13T05:52:02.412Z,21.67
2018-09-13T05:53:02.455Z,21.67
2018-09-13T05:54:02.366Z,21.67
2018-09-13T05:55:02.429Z,21.66
2018-09-13T05:56:02.313Z,21.67
2018-09-13T05:57:02.557Z,21.66
2018-09-13T05:58:02.435Z,21.66
2018-09-13T05:59:02.503Z,21.67
2018-09-13T06:00:02.697Z,21.66
2018-09-13T06:01:03.073Z,21.66
2018-09-13T06:02:02.590Z,21.66
2018-09-13T06:03:02.286Z,21.66
2018-09-13T06:04:02.424Z,21.67
2018-09-13T06:05:02.345Z,21.66
2018-09-13T06:06:02.548Z,21.66
2018-09-13T06:07:02.408Z,21.66
2018-09-13T06:08:02.425Z,21.67
2018-09-13T06:09:02.332Z,21.66
2018-09-13T06:10:02.535Z,21.67
2018-09-13T06:11:02.341Z,21.67
2018-09-13T06:12:02.252Z,21.67
2018-09-13T06:13:02.635Z,21.66
2018-09-13T06:14:02.800Z,21.67
2018-09-13T06:15:02.850Z,21.66
2018-09-13T06:16:02.405Z,21.66
2018-09-13T06:17:02.393Z,21.67
2018-09-13T06:18:02.649Z,21.66
2018-09-13T06:19:02.711Z,21.66
2018-09-13T06:20:02.346Z,21.66
2018-09-13T06:21:02.578Z,21.66
2018-09-13T06:22:02.339Z,21.66
2018-09-13T06:23:02.352Z,21.67
2018-09-13T06:24:02.747Z,21.66
2018-09-13T06:25:02.705Z,21.66
2018-09-13T06:26:02.607Z,21.66
2018-09-13T06:27:02.580Z,21.66
2018-09-13T06:28:02.706Z,21.66
2018-09-13T06:29:02.399Z,21.66
2018-09-13T06:30:02.275Z,21.66
2018-09-13T06:31:02.389Z,21.65
2018-09-13T06:32:02.467Z,21.67
2018-09-13T06:33:02.747Z,21.66
2018-09-13T06:34:02.450Z,21.66
2018-09-13T06:35:02.614Z,21.66
2018-09-13T06:36:02.768Z,21.65
2018-09-13T06:37:02.400Z,21.66
2018-09-13T06:38:02.640Z,21.66
2018-09-13T06:39:02.458Z,21.65
2018-09-13T06:40:02.521Z,21.66
2018-09-13T06:41:02.474Z,21.66
2018-09-13T06:42:02.611Z,21.65
2018-09-13T06:43:02.767Z,21.66
2018-09-13T06:44:02.572Z,21.66
2018-09-13T06:45:02.471Z,21.66
2018-09-13T06:46:02.489Z,21.66
2018-09-13T06:47:02.765Z,21.65
2018-09-13T06:48:03.021Z,21.66
2018-09-13T06:49:02.667Z,21.66
2018-09-13T06:50:02.350Z,21.66
2018-09-13T06:51:02.409Z,21.65
2018-09-13T06:52:02.478Z,21.65
2018-09-13T06:53:02.472Z,21.66
2018-09-13T06:54:02.456Z,21.65
2018-09-13T06:55:02.593Z,21.65
2018-09-13T06:56:02.652Z,21.65
2018-09-13T06:57:02.685Z,21.66
2018-09-13T06:58:02.787Z,21.65
2018-09-13T06:59:02.279Z,21.66
2018-09-13T07:00:02.366Z,21.65
2018-09-13T07:01:02.549Z,21.66
2018-09-13T07:02:02.462Z,21.65
2018-09-13T07:03:02.540Z,21.65
2018-09-13T07:04:02.509Z,21.65
2018-09-13T07:05:02.515Z,21.65
2018-09-13T07:06:02.454Z,21.65
2018-09-13T07:07:02.650Z,21.65
2018-09-13T07:08:02.441Z,21.65
2018-09-13T07:09:02.837Z,21.65
2018-09-13T07:10:02.506Z,21.65
2018-09-13T07:11:02.715Z,21.65
2018-09-13T07:12:02.426Z,21.65
2018-09-13T07:13:02.301Z,21.65
2018-09-13T07:14:02.732Z,21.65
2018-09-13T07:15:02.364Z,21.65
2018-09-13T07:16:02.254Z,21.65
2018-09-13T07:17:02.318Z,21.65
2018-09-13T07:18:02.420Z,21.65
2018-09-13T07:19:02.247Z,21.66
2018-09-13T07:20:02.509Z,21.66
2018-09-13T07:21:02.459Z,21.65
2018-09-13T07:22:02.518Z,21.65
2018-09-13T07:23:02.260Z,21.65
2018-09-13T07:24:02.504Z,21.65
2018-09-13T07:25:02.432Z,21.65
2018-09-13T07:26:02.500Z,21.65
2018-09-13T07:27:02.514Z,21.64
2018-09-13T07:28:02.417Z,21.65
2018-09-13T07:29:02.594Z,21.64
2018-09-13T07:30:02.397Z,21.65
2018-09-13T07:31:02.400Z,21.65
2018-09-13T07:32:02.340Z,21.64
2018-09-13T07:33:02.386Z,21.64
2018-09-13T07:34:02.397Z,21.65
2018-09-13T07:35:02.631Z,21.65
2018-09-13T07:36:02.459Z,21.64
2018-09-13T07:37:02.511Z,21.65
2018-09-13T07:38:02.337Z,21.65
2018-09-13T07:39:02.320Z,21.64
2018-09-13T07:40:02.759Z,21.65
2018-09-13T07:41:02.728Z,21.65
2018-09-13T07:42:02.487Z,21.65
2018-09-13T07:43:02.711Z,21.65
2018-09-13T07:44:02.372Z,21.65
2018-09-13T07:45:02.522Z,21.64
2018-09-13T07:46:02.659Z,21.64
2018-09-13T07:47:02.351Z,21.65
2018-09-13T07:48:02.404Z,21.59
2018-09-13T07:49:02.698Z,21.56
2018-09-13T07:50:02.525Z,21.56
2018-09-13T07:51:02.747Z,21.49
2018-09-13T07:52:02.619Z,21.52
2018-09-13T07:53:02.490Z,21.5
2018-09-13T07:54:02.260Z,21.51
2018-09-13T07:55:02.609Z,21.49
2018-09-13T07:56:02.547Z,21.45
2018-09-13T07:57:03.295Z,21.43
2018-09-13T07:58:02.461Z,21.39
2018-09-13T07:59:02.440Z,21.38
2018-09-13T08:00:02.348Z,21.37
2018-09-13T08:01:02.653Z,21.38
2018-09-13T08:02:02.342Z,21.39
2018-09-13T08:03:02.355Z,21.42
2018-09-13T08:04:02.500Z,21.44
2018-09-13T08:05:02.606Z,21.48
2018-09-13T08:06:03.068Z,21.5
2018-09-13T08:07:02.821Z,21.51
2018-09-13T08:08:02.422Z,21.52
2018-09-13T08:09:02.350Z,21.52
2018-09-13T08:10:02.420Z,21.53
2018-09-13T08:11:02.452Z,21.54
2018-09-13T08:12:02.538Z,21.56
2018-09-13T08:13:02.616Z,21.59
2018-09-13T08:14:02.416Z,21.59
2018-09-13T08:15:02.745Z,21.61
2018-09-13T08:16:02.664Z,21.62
2018-09-13T08:17:02.500Z,21.62
2018-09-13T08:18:02.231Z,21.62
2018-09-13T08:19:02.501Z,21.63
2018-09-13T08:20:02.431Z,21.63
2018-09-13T08:21:02.840Z,21.63
2018-09-13T08:22:03.290Z,21.64
2018-09-13T08:23:02.888Z,21.65
2018-09-13T08:24:02.687Z,21.63
2018-09-13T08:25:02.252Z,21.63
2018-09-13T08:26:02.262Z,21.64
2018-09-13T08:27:02.486Z,21.66
2018-09-13T08:28:02.310Z,21.67
2018-09-13T08:29:02.595Z,21.69
2018-09-13T08:30:02.373Z,21.7
2018-09-13T08:31:02.661Z,21.71
2018-09-13T08:32:02.685Z,21.72
2018-09-13T08:33:02.667Z,21.72
2018-09-13T08:34:02.696Z,21.75
2018-09-13T08:35:03.045Z,21.76
2018-09-13T08:36:02.471Z,21.76
2018-09-13T08:37:02.609Z,21.79
2018-09-13T08:38:02.280Z,21.79
2018-09-13T08:39:02.255Z,21.79
2018-09-13T08:40:02.368Z,21.8
2018-09-13T08:41:02.380Z,21.81
2018-09-13T08:42:02.541Z,21.81
2018-09-13T08:43:02.557Z,21.82
2018-09-13T08:44:02.481Z,21.83
2018-09-13T08:45:02.468Z,21.84
2018-09-13T08:46:02.599Z,21.84
2018-09-13T08:47:02.488Z,21.84
2018-09-13T08:48:02.368Z,21.87
2018-09-13T08:49:02.291Z,21.86
2018-09-13T08:50:02.101Z,21.88
2018-09-13T08:51:02.341Z,21.88
2018-09-13T08:52:02.615Z,21.89
2018-09-13T08:53:02.300Z,21.87
2018-09-13T08:54:02.813Z,21.89
2018-09-13T08:55:02.460Z,21.9
2018-09-13T08:56:02.683Z,21.87
2018-09-13T08:57:02.562Z,21.84
2018-09-13T08:58:02.512Z,21.83
2018-09-13T08:59:02.371Z,21.82
2018-09-13T09:00:02.318Z,21.81
2018-09-13T09:01:02.601Z,21.81
2018-09-13T09:02:02.642Z,21.8
2018-09-13T09:03:02.697Z,21.79
2018-09-13T09:04:02.463Z,21.78
2018-09-13T09:05:02.387Z,21.77
2018-09-13T09:06:02.437Z,21.77
2018-09-13T09:07:02.525Z,21.77
2018-09-13T09:08:02.383Z,21.76
2018-09-13T09:09:02.456Z,21.75
2018-09-13T09:10:02.724Z,21.75
2018-09-13T09:11:02.786Z,21.74
2018-09-13T09:12:02.640Z,21.73
2018-09-13T09:13:02.298Z,21.72
2018-09-13T09:14:02.888Z,21.73
2018-09-13T09:15:02.466Z,21.73
2018-09-13T09:16:02.665Z,21.72
2018-09-13T09:17:02.597Z,21.73
2018-09-13T09:18:02.647Z,21.72
2018-09-13T09:19:03.038Z,21.72
2018-09-13T09:20:02.669Z,21.71
2018-09-13T09:21:02.379Z,21.71
2018-09-13T09:22:02.278Z,21.71
2018-09-13T09:23:02.565Z,21.71
2018-09-13T09:24:02.502Z,21.71
2018-09-13T09:25:02.660Z,21.7
2018-09-13T09:26:02.747Z,21.69
2018-09-13T09:27:02.474Z,21.68
2018-09-13T09:28:02.440Z,21.69
2018-09-13T09:29:02.472Z,21.69
2018-09-13T09:30:02.381Z,21.68
2018-09-13T09:31:02.584Z,21.68
2018-09-13T09:32:02.260Z,21.68
2018-09-13T09:33:02.622Z,21.69
2018-09-13T09:34:02.616Z,21.68
2018-09-13T09:35:02.424Z,21.69
2018-09-13T09:36:02.570Z,21.69
2018-09-13T09:37:02.364Z,21.68
2018-09-13T09:38:02.561Z,21.68
2018-09-13T09:39:02.495Z,21.68
2018-09-13T09:40:02.393Z,21.68
2018-09-13T09:41:02.346Z,21.67
2018-09-13T09:42:02.276Z,21.67
2018-09-13T09:43:02.430Z,21.67
2018-09-13T09:44:02.781Z,21.67
2018-09-13T09:45:03.625Z,21.66
2018-09-13T09:46:02.648Z,21.66
2018-09-13T09:47:02.658Z,21.66
2018-09-13T09:48:02.535Z,21.67
2018-09-13T09:49:02.538Z,21.66
2018-09-13T09:50:02.529Z,21.66
2018-09-13T09:51:02.416Z,21.66
2018-09-13T09:52:02.560Z,21.66
2018-09-13T09:53:02.629Z,21.66
2018-09-13T09:54:02.619Z,21.65
2018-09-13T09:55:02.437Z,21.65
2018-09-13T09:56:02.583Z,21.66
2018-09-13T09:57:02.330Z,21.66
2018-09-13T09:58:02.906Z,21.66
2018-09-13T09:59:02.402Z,21.66
2018-09-13T10:00:02.309Z,21.67
2018-09-13T10:01:02.722Z,21.67
2018-09-13T10:02:02.388Z,21.67
2018-09-13T10:03:02.691Z,21.66
2018-09-13T10:04:02.310Z,21.66
2018-09-13T10:05:02.400Z,21.66
2018-09-13T10:06:02.225Z,21.65
2018-09-13T10:07:02.285Z,21.65
2018-09-13T10:08:02.335Z,21.66
2018-09-13T10:09:02.371Z,21.66
2018-09-13T10:10:02.374Z,21.65
2018-09-13T10:11:02.271Z,21.65
2018-09-13T10:12:02.338Z,21.65
2018-09-13T10:13:02.245Z,21.65
2018-09-13T10:14:02.427Z,21.65
2018-09-13T10:15:02.362Z,21.66
2018-09-13T10:16:02.516Z,21.65
2018-09-13T10:17:02.455Z,21.65
2018-09-13T10:18:02.439Z,21.66
2018-09-13T10:19:02.320Z,21.66
2018-09-13T10:20:02.724Z,21.66
2018-09-13T10:21:02.372Z,21.66
2018-09-13T10:22:02.372Z,21.65
2018-09-13T10:23:02.672Z,21.66
2018-09-13T10:24:02.551Z,21.66
2018-09-13T10:25:02.553Z,21.66
2018-09-13T10:26:02.188Z,21.66
2018-09-13T10:27:02.663Z,21.66
2018-09-13T10:28:02.583Z,21.66
2018-09-13T10:29:02.377Z,21.66
2018-09-13T10:30:02.209Z,21.65
2018-09-13T10:31:02.649Z,21.66
2018-09-13T10:32:02.705Z,21.66
2018-09-13T10:33:02.982Z,21.66
2018-09-13T10:34:02.524Z,21.66
2018-09-13T10:35:02.467Z,21.65
2018-09-13T10:36:02.408Z,21.66
2018-09-13T10:37:02.616Z,21.66
2018-09-13T10:38:02.372Z,21.66
2018-09-13T10:39:02.459Z,21.66
2018-09-13T10:40:02.672Z,21.66
2018-09-13T10:41:02.466Z,21.66
2018-09-13T10:42:02.724Z,21.66
2018-09-13T10:43:02.830Z,21.66
2018-09-13T10:44:02.676Z,21.66
2018-09-13T10:45:02.386Z,21.66
2018-09-13T10:46:02.626Z,21.66
2018-09-13T10:47:02.685Z,21.66
2018-09-13T10:48:02.757Z,21.66
2018-09-13T10:49:02.742Z,21.67
2018-09-13T10:50:02.428Z,21.66
2018-09-13T10:51:02.896Z,21.66
2018-09-13T10:52:02.327Z,21.66
2018-09-13T10:53:02.501Z,21.67
2018-09-13T10:54:02.517Z,21.66
2018-09-13T10:55:02.558Z,21.66
2018-09-13T10:56:02.757Z,21.67
2018-09-13T10:57:02.487Z,21.67
2018-09-13T10:58:02.547Z,21.67
2018-09-13T10:59:02.523Z,21.67
2018-09-13T11:00:02.332Z,21.67
2018-09-13T11:01:02.518Z,21.68
2018-09-13T11:02:02.491Z,21.67
2018-09-13T11:03:02.391Z,21.66
2018-09-13T11:04:02.486Z,21.67
2018-09-13T11:05:02.396Z,21.67
2018-09-13T11:06:02.326Z,21.67
2018-09-13T11:07:02.390Z,21.67
2018-09-13T11:08:02.259Z,21.67
2018-09-13T11:09:02.374Z,21.67
2018-09-13T11:10:02.275Z,21.67
2018-09-13T11:11:02.900Z,21.68
2018-09-13T11:12:02.710Z,21.67
2018-09-13T11:13:02.648Z,21.67
2018-09-13T11:14:02.910Z,21.68
2018-09-13T11:15:02.525Z,21.67
2018-09-13T11:16:02.351Z,21.67
2018-09-13T11:17:02.251Z,21.67
2018-09-13T11:18:02.325Z,21.68
2018-09-13T11:19:02.354Z,21.68
2018-09-13T11:20:02.611Z,21.68
2018-09-13T11:21:02.436Z,21.68
2018-09-13T11:22:02.858Z,21.68
2018-09-13T11:23:02.331Z,21.68
2018-09-13T11:24:02.544Z,21.68
2018-09-13T11:25:02.306Z,21.67
2018-09-13T11:26:02.305Z,21.67
2018-09-13T11:27:02.395Z,21.68
2018-09-13T11:28:02.332Z,21.67
2018-09-13T11:29:02.363Z,21.67
2018-09-13T11:30:02.342Z,21.67
2018-09-13T11:31:02.389Z,21.68
2018-09-13T11:32:02.256Z,21.68
2018-09-13T11:33:02.219Z,21.68
2018-09-13T11:34:02.360Z,21.68
2018-09-13T11:35:02.429Z,21.68
2018-09-13T11:36:02.469Z,21.68
2018-09-13T11:37:02.432Z,21.68
2018-09-13T11:38:02.410Z,21.67
2018-09-13T11:39:02.324Z,21.67
2018-09-13T11:40:02.414Z,21.65
2018-09-13T11:41:02.497Z,21.68
2018-09-13T11:42:02.340Z,21.67
2018-09-13T11:43:02.289Z,21.67
2018-09-13T11:44:02.520Z,21.67
2018-09-13T11:45:02.435Z,21.67
2018-09-13T11:46:02.380Z,21.67
2018-09-13T11:47:02.781Z,21.68
2018-09-13T11:48:02.845Z,21.68
2018-09-13T11:49:02.323Z,21.69
2018-09-13T11:50:02.391Z,21.68
2018-09-13T11:51:02.215Z,21.68
2018-09-13T11:52:02.368Z,21.68
2018-09-13T11:53:02.433Z,21.68
2018-09-13T11:54:02.455Z,21.68
2018-09-13T11:55:02.431Z,21.68
2018-09-13T11:56:02.676Z,21.68
2018-09-13T11:57:02.430Z,21.67
2018-09-13T11:58:02.621Z,21.68
2018-09-13T11:59:02.232Z,21.68
2018-09-13T12:00:02.280Z,21.67
2018-09-13T12:01:02.351Z,21.68
2018-09-13T12:02:02.515Z,21.67
2018-09-13T12:03:02.400Z,21.68
2018-09-13T12:04:02.403Z,21.67
2018-09-13T12:05:02.553Z,21.67
2018-09-13T12:06:02.532Z,21.67
2018-09-13T12:07:02.366Z,21.67
2018-09-13T12:08:02.434Z,21.68
2018-09-13T12:09:02.649Z,21.67
2018-09-13T12:10:02.379Z,21.67
2018-09-13T12:11:02.614Z,21.67
2018-09-13T12:12:02.463Z,21.67
2018-09-13T12:13:02.450Z,21.67
2018-09-13T12:14:02.462Z,21.67
2018-09-13T12:15:03.665Z,21.67
2018-09-13T12:16:02.367Z,21.67
2018-09-13T12:17:02.413Z,21.67
2018-09-13T12:18:02.651Z,21.66
2018-09-13T12:19:02.367Z,21.67
2018-09-13T12:20:02.663Z,21.67
2018-09-13T12:21:03.042Z,21.67
2018-09-13T12:22:02.314Z,21.67
2018-09-13T12:23:02.433Z,21.67
2018-09-13T12:24:02.318Z,21.67
2018-09-13T12:25:02.401Z,21.67
2018-09-13T12:26:02.517Z,21.66
2018-09-13T12:27:02.566Z,21.67
2018-09-13T12:28:02.226Z,21.67
2018-09-13T12:29:02.437Z,21.66
2018-09-13T12:30:02.485Z,21.66
2018-09-13T12:31:02.413Z,21.66
2018-09-13T12:32:02.171Z,21.67
2018-09-13T12:33:02.880Z,21.66
2018-09-13T12:34:02.608Z,21.67
2018-09-13T12:35:02.412Z,21.66
2018-09-13T12:36:02.174Z,21.66
2018-09-13T12:37:02.508Z,21.66
2018-09-13T12:38:02.266Z,21.66
2018-09-13T12:39:02.245Z,21.66
2018-09-13T12:40:02.454Z,21.66
2018-09-13T12:41:02.395Z,21.67
2018-09-13T12:42:02.314Z,21.66
2018-09-13T12:43:02.670Z,21.66
2018-09-13T12:44:02.281Z,21.66
2018-09-13T12:45:02.768Z,21.66
2018-09-13T12:46:02.743Z,21.66
2018-09-13T12:47:03.625Z,21.66
2018-09-13T12:48:02.324Z,21.66
2018-09-13T12:49:02.716Z,21.66
2018-09-13T12:50:02.287Z,21.66
2018-09-13T12:51:02.727Z,21.66
2018-09-13T12:52:02.427Z,21.66
2018-09-13T12:53:02.433Z,21.66
2018-09-13T12:54:02.229Z,21.66